sensor_id;sensor_type;location;lat;lon;timestamp;P1;durP1;ratioP1;P2;durP2;ratioP2
51866;SDS011;52862;52.504;13.480;2023-01-19T00:01:46;51.00;;;16.60;;
51866;SDS011;52862;52.504;13.480;2023-01-19T00:04:13;51.17;;;17.00;;
51866;SDS011;52862;52.504;13.480;2023-01-19T00:06:41;49.97;;;18.33;;
51866;SDS011;52862;52.504;13.480;2023-01-19T00:09:08;45.63;;;17.63;;
51866;SDS011;52862;52.504;13.480;2023-01-19T00:11:35;42.23;;;17.40;;
51866;SDS011;52862;52.504;13.480;2023-01-19T00:14:02;46.97;;;17.77;;
51866;SDS011;52862;52.504;13.480;2023-01-19T00:16:29;42.30;;;15.97;;
51866;SDS011;52862;52.504;13.480;2023-01-19T00:18:56;45.03;;;17.20;;
51866;SDS011;52862;52.504;13.480;2023-01-19T00:21:23;44.57;;;17.10;;
51866;SDS011;52862;52.504;13.480;2023-01-19T00:23:50;37.97;;;15.83;;
51866;SDS011;52862;52.504;13.480;2023-01-19T00:26:18;45.90;;;17.70;;
51866;SDS011;52862;52.504;13.480;2023-01-19T00:28:46;41.77;;;16.07;;
51866;SDS011;52862;52.504;13.480;2023-01-19T00:31:14;40.87;;;15.80;;
51866;SDS011;52862;52.504;13.480;2023-01-19T00:33:41;47.27;;;16.73;;
51866;SDS011;52862;52.504;13.480;2023-01-19T00:36:08;50.50;;;17.07;;
51866;SDS011;52862;52.504;13.480;2023-01-19T00:38:35;45.10;;;18.17;;
51866;SDS011;52862;52.504;13.480;2023-01-19T00:41:04;41.40;;;16.30;;
51866;SDS011;52862;52.504;13.480;2023-01-19T00:43:31;36.00;;;17.17;;
51866;SDS011;52862;52.504;13.480;2023-01-19T00:45:58;40.17;;;16.40;;
51866;SDS011;52862;52.504;13.480;2023-01-19T00:48:25;38.90;;;16.07;;
51866;SDS011;52862;52.504;13.480;2023-01-19T00:50:52;47.20;;;17.50;;
51866;SDS011;52862;52.504;13.480;2023-01-19T00:53:19;48.63;;;17.00;;
51866;SDS011;52862;52.504;13.480;2023-01-19T00:55:45;41.33;;;17.20;;
51866;SDS011;52862;52.504;13.480;2023-01-19T00:58:13;44.00;;;17.60;;
51866;SDS011;52862;52.504;13.480;2023-01-19T01:00:39;42.67;;;15.80;;
51866;SDS011;52862;52.504;13.480;2023-01-19T01:03:06;43.63;;;15.03;;
51866;SDS011;52862;52.504;13.480;2023-01-19T01:05:33;37.43;;;15.07;;
51866;SDS011;52862;52.504;13.480;2023-01-19T01:08:00;37.80;;;15.10;;
51866;SDS011;52862;52.504;13.480;2023-01-19T01:10:27;37.97;;;15.90;;
51866;SDS011;52862;52.504;13.480;2023-01-19T01:12:54;38.87;;;16.27;;
51866;SDS011;52862;52.504;13.480;2023-01-19T01:15:25;40.57;;;15.70;;
51866;SDS011;52862;52.504;13.480;2023-01-19T01:17:52;46.37;;;16.83;;
51866;SDS011;52862;52.504;13.480;2023-01-19T01:20:20;49.23;;;16.07;;
51866;SDS011;52862;52.504;13.480;2023-01-19T01:22:50;39.23;;;16.00;;
51866;SDS011;52862;52.504;13.480;2023-01-19T01:25:19;36.83;;;15.87;;
51866;SDS011;52862;52.504;13.480;2023-01-19T01:27:48;38.23;;;16.20;;
51866;SDS011;52862;52.504;13.480;2023-01-19T01:30:15;45.60;;;17.30;;
51866;SDS011;52862;52.504;13.480;2023-01-19T01:32:43;38.53;;;15.37;;
51866;SDS011;52862;52.504;13.480;2023-01-19T01:35:10;38.33;;;15.87;;
51866;SDS011;52862;52.504;13.480;2023-01-19T01:37:37;37.10;;;15.30;;
51866;SDS011;52862;52.504;13.480;2023-01-19T01:40:05;37.23;;;16.43;;
51866;SDS011;52862;52.504;13.480;2023-01-19T01:42:33;43.77;;;16.93;;
51866;SDS011;52862;52.504;13.480;2023-01-19T01:45:01;40.87;;;17.07;;
51866;SDS011;52862;52.504;13.480;2023-01-19T01:47:33;47.33;;;17.77;;
51866;SDS011;52862;52.504;13.480;2023-01-19T01:50:07;51.03;;;18.33;;
51866;SDS011;52862;52.504;13.480;2023-01-19T01:52:38;44.50;;;17.40;;
51866;SDS011;52862;52.504;13.480;2023-01-19T01:55:28;49.27;;;16.20;;
51866;SDS011;52862;52.504;13.480;2023-01-19T01:57:58;43.53;;;17.03;;
51866;SDS011;52862;52.504;13.480;2023-01-19T02:00:27;39.60;;;16.97;;
51866;SDS011;52862;52.504;13.480;2023-01-19T02:03:15;45.13;;;16.33;;
51866;SDS011;52862;52.504;13.480;2023-01-19T02:05:43;44.90;;;17.27;;
51866;SDS011;52862;52.504;13.480;2023-01-19T02:08:11;44.23;;;16.43;;
51866;SDS011;52862;52.504;13.480;2023-01-19T02:11:00;43.53;;;16.57;;
51866;SDS011;52862;52.504;13.480;2023-01-19T02:13:46;48.20;;;17.33;;
51866;SDS011;52862;52.504;13.480;2023-01-19T02:16:14;43.87;;;16.87;;
51866;SDS011;52862;52.504;13.480;2023-01-19T02:18:42;38.50;;;16.23;;
51866;SDS011;52862;52.504;13.480;2023-01-19T02:21:11;48.77;;;15.87;;
51866;SDS011;52862;52.504;13.480;2023-01-19T02:23:44;51.27;;;17.27;;
51866;SDS011;52862;52.504;13.480;2023-01-19T02:26:14;53.07;;;17.80;;
51866;SDS011;52862;52.504;13.480;2023-01-19T02:28:44;33.37;;;16.00;;
51866;SDS011;52862;52.504;13.480;2023-01-19T02:31:13;47.53;;;17.67;;
51866;SDS011;52862;52.504;13.480;2023-01-19T02:33:40;45.20;;;17.23;;
51866;SDS011;52862;52.504;13.480;2023-01-19T02:36:07;48.30;;;17.30;;
51866;SDS011;52862;52.504;13.480;2023-01-19T02:38:36;43.00;;;16.27;;
51866;SDS011;52862;52.504;13.480;2023-01-19T02:41:06;52.37;;;17.43;;
51866;SDS011;52862;52.504;13.480;2023-01-19T02:43:36;47.67;;;17.20;;
51866;SDS011;52862;52.504;13.480;2023-01-19T02:46:03;43.93;;;17.00;;
51866;SDS011;52862;52.504;13.480;2023-01-19T02:48:30;41.57;;;17.27;;
51866;SDS011;52862;52.504;13.480;2023-01-19T02:50:57;36.30;;;16.80;;
51866;SDS011;52862;52.504;13.480;2023-01-19T02:53:32;42.70;;;16.60;;
51866;SDS011;52862;52.504;13.480;2023-01-19T02:56:43;33.20;;;15.93;;
51866;SDS011;52862;52.504;13.480;2023-01-19T02:59:31;40.00;;;16.87;;
51866;SDS011;52862;52.504;13.480;2023-01-19T03:02:10;36.60;;;15.80;;
51866;SDS011;52862;52.504;13.480;2023-01-19T03:04:58;51.97;;;16.27;;
51866;SDS011;52862;52.504;13.480;2023-01-19T03:07:40;38.23;;;16.73;;
51866;SDS011;52862;52.504;13.480;2023-01-19T03:10:13;44.47;;;16.10;;
51866;SDS011;52862;52.504;13.480;2023-01-19T03:12:47;46.10;;;18.30;;
51866;SDS011;52862;52.504;13.480;2023-01-19T03:15:18;35.13;;;15.90;;
51866;SDS011;52862;52.504;13.480;2023-01-19T03:17:48;48.77;;;19.67;;
51866;SDS011;52862;52.504;13.480;2023-01-19T03:20:17;53.23;;;18.93;;
51866;SDS011;52862;52.504;13.480;2023-01-19T03:22:47;46.77;;;18.07;;
51866;SDS011;52862;52.504;13.480;2023-01-19T03:25:25;38.03;;;17.77;;
51866;SDS011;52862;52.504;13.480;2023-01-19T03:27:57;51.13;;;19.00;;
51866;SDS011;52862;52.504;13.480;2023-01-19T03:30:25;44.53;;;19.57;;
51866;SDS011;52862;52.504;13.480;2023-01-19T03:32:55;48.53;;;19.80;;
51866;SDS011;52862;52.504;13.480;2023-01-19T03:35:27;44.57;;;17.87;;
51866;SDS011;52862;52.504;13.480;2023-01-19T03:37:57;46.50;;;17.57;;
51866;SDS011;52862;52.504;13.480;2023-01-19T03:40:28;46.43;;;19.47;;
51866;SDS011;52862;52.504;13.480;2023-01-19T03:42:58;37.83;;;18.47;;
51866;SDS011;52862;52.504;13.480;2023-01-19T03:45:26;50.10;;;19.63;;
51866;SDS011;52862;52.504;13.480;2023-01-19T03:47:55;52.90;;;18.60;;
51866;SDS011;52862;52.504;13.480;2023-01-19T03:50:23;44.70;;;17.13;;
51866;SDS011;52862;52.504;13.480;2023-01-19T03:52:58;48.23;;;17.93;;
51866;SDS011;52862;52.504;13.480;2023-01-19T03:55:28;50.13;;;18.73;;
51866;SDS011;52862;52.504;13.480;2023-01-19T03:57:55;38.00;;;17.50;;
51866;SDS011;52862;52.504;13.480;2023-01-19T04:00:22;53.07;;;18.70;;
51866;SDS011;52862;52.504;13.480;2023-01-19T04:02:49;47.43;;;19.87;;
51866;SDS011;52862;52.504;13.480;2023-01-19T04:05:16;43.23;;;18.60;;
51866;SDS011;52862;52.504;13.480;2023-01-19T04:07:44;38.97;;;18.60;;
51866;SDS011;52862;52.504;13.480;2023-01-19T04:10:12;49.90;;;19.23;;
51866;SDS011;52862;52.504;13.480;2023-01-19T04:12:40;42.83;;;17.70;;
51866;SDS011;52862;52.504;13.480;2023-01-19T04:15:07;47.53;;;19.00;;
51866;SDS011;52862;52.504;13.480;2023-01-19T04:17:34;47.33;;;17.80;;
51866;SDS011;52862;52.504;13.480;2023-01-19T04:20:01;44.77;;;18.93;;
51866;SDS011;52862;52.504;13.480;2023-01-19T04:22:28;43.40;;;19.27;;
51866;SDS011;52862;52.504;13.480;2023-01-19T04:24:55;51.27;;;19.43;;
51866;SDS011;52862;52.504;13.480;2023-01-19T04:27:21;45.83;;;18.63;;
51866;SDS011;52862;52.504;13.480;2023-01-19T04:29:48;47.50;;;18.30;;
51866;SDS011;52862;52.504;13.480;2023-01-19T04:32:15;49.93;;;17.90;;
51866;SDS011;52862;52.504;13.480;2023-01-19T04:34:43;49.33;;;19.03;;
51866;SDS011;52862;52.504;13.480;2023-01-19T04:37:09;41.67;;;19.07;;
51866;SDS011;52862;52.504;13.480;2023-01-19T04:39:37;49.00;;;18.67;;
51866;SDS011;52862;52.504;13.480;2023-01-19T04:42:03;43.63;;;19.50;;
51866;SDS011;52862;52.504;13.480;2023-01-19T04:44:30;43.90;;;18.93;;
51866;SDS011;52862;52.504;13.480;2023-01-19T04:46:57;41.00;;;18.07;;
51866;SDS011;52862;52.504;13.480;2023-01-19T04:49:24;42.43;;;18.73;;
51866;SDS011;52862;52.504;13.480;2023-01-19T04:51:52;44.57;;;19.07;;
51866;SDS011;52862;52.504;13.480;2023-01-19T04:54:19;39.13;;;18.70;;
51866;SDS011;52862;52.504;13.480;2023-01-19T04:56:46;51.07;;;19.10;;
51866;SDS011;52862;52.504;13.480;2023-01-19T04:59:13;41.93;;;18.30;;
51866;SDS011;52862;52.504;13.480;2023-01-19T05:01:40;41.03;;;17.87;;
51866;SDS011;52862;52.504;13.480;2023-01-19T05:04:07;49.40;;;18.50;;
51866;SDS011;52862;52.504;13.480;2023-01-19T05:06:34;45.77;;;18.23;;
51866;SDS011;52862;52.504;13.480;2023-01-19T05:09:01;38.33;;;17.87;;
51866;SDS011;52862;52.504;13.480;2023-01-19T05:11:28;54.57;;;17.80;;
51866;SDS011;52862;52.504;13.480;2023-01-19T05:13:55;48.23;;;17.77;;
51866;SDS011;52862;52.504;13.480;2023-01-19T05:16:22;45.37;;;18.60;;
51866;SDS011;52862;52.504;13.480;2023-01-19T05:18:49;42.93;;;18.20;;
51866;SDS011;52862;52.504;13.480;2023-01-19T05:21:15;50.07;;;19.77;;
51866;SDS011;52862;52.504;13.480;2023-01-19T05:23:42;40.43;;;18.07;;
51866;SDS011;52862;52.504;13.480;2023-01-19T05:26:09;37.87;;;17.70;;
51866;SDS011;52862;52.504;13.480;2023-01-19T05:28:36;37.03;;;16.70;;
51866;SDS011;52862;52.504;13.480;2023-01-19T05:31:03;39.77;;;16.83;;
51866;SDS011;52862;52.504;13.480;2023-01-19T05:33:30;38.30;;;15.83;;
51866;SDS011;52862;52.504;13.480;2023-01-19T05:35:57;39.13;;;17.07;;
51866;SDS011;52862;52.504;13.480;2023-01-19T05:38:24;39.17;;;17.07;;
51866;SDS011;52862;52.504;13.480;2023-01-19T05:41:00;41.40;;;18.27;;
51866;SDS011;52862;52.504;13.480;2023-01-19T05:43:28;40.80;;;18.10;;
51866;SDS011;52862;52.504;13.480;2023-01-19T05:45:54;43.17;;;19.37;;
51866;SDS011;52862;52.504;13.480;2023-01-19T05:48:21;47.77;;;18.23;;
51866;SDS011;52862;52.504;13.480;2023-01-19T05:50:48;44.37;;;18.33;;
51866;SDS011;52862;52.504;13.480;2023-01-19T05:53:15;49.47;;;18.60;;
51866;SDS011;52862;52.504;13.480;2023-01-19T05:55:42;40.40;;;17.43;;
51866;SDS011;52862;52.504;13.480;2023-01-19T05:58:09;54.70;;;18.93;;
51866;SDS011;52862;52.504;13.480;2023-01-19T06:00:36;45.83;;;18.00;;
51866;SDS011;52862;52.504;13.480;2023-01-19T06:03:03;58.30;;;18.30;;
51866;SDS011;52862;52.504;13.480;2023-01-19T06:05:31;38.33;;;18.83;;
51866;SDS011;52862;52.504;13.480;2023-01-19T06:07:58;44.27;;;18.53;;
51866;SDS011;52862;52.504;13.480;2023-01-19T06:10:26;47.20;;;17.90;;
51866;SDS011;52862;52.504;13.480;2023-01-19T06:12:53;42.43;;;18.83;;
51866;SDS011;52862;52.504;13.480;2023-01-19T06:15:19;42.77;;;18.57;;
51866;SDS011;52862;52.504;13.480;2023-01-19T06:17:48;36.83;;;16.97;;
51866;SDS011;52862;52.504;13.480;2023-01-19T06:20:14;42.23;;;17.17;;
51866;SDS011;52862;52.504;13.480;2023-01-19T06:22:42;47.40;;;18.10;;
51866;SDS011;52862;52.504;13.480;2023-01-19T06:25:08;42.27;;;17.87;;
51866;SDS011;52862;52.504;13.480;2023-01-19T06:27:36;40.90;;;18.20;;
51866;SDS011;52862;52.504;13.480;2023-01-19T06:30:10;46.40;;;18.43;;
51866;SDS011;52862;52.504;13.480;2023-01-19T06:32:37;48.27;;;19.33;;
51866;SDS011;52862;52.504;13.480;2023-01-19T06:35:05;40.70;;;18.03;;
51866;SDS011;52862;52.504;13.480;2023-01-19T06:37:32;47.40;;;18.93;;
51866;SDS011;52862;52.504;13.480;2023-01-19T06:39:59;45.17;;;18.60;;
51866;SDS011;52862;52.504;13.480;2023-01-19T06:42:26;44.03;;;18.37;;
51866;SDS011;52862;52.504;13.480;2023-01-19T06:44:53;43.53;;;18.40;;
51866;SDS011;52862;52.504;13.480;2023-01-19T06:47:19;48.97;;;18.93;;
51866;SDS011;52862;52.504;13.480;2023-01-19T06:49:46;39.47;;;17.90;;
51866;SDS011;52862;52.504;13.480;2023-01-19T06:52:14;36.77;;;18.03;;
51866;SDS011;52862;52.504;13.480;2023-01-19T06:54:42;50.47;;;19.97;;
51866;SDS011;52862;52.504;13.480;2023-01-19T06:57:10;40.73;;;17.70;;
51866;SDS011;52862;52.504;13.480;2023-01-19T06:59:38;46.53;;;19.20;;
51866;SDS011;52862;52.504;13.480;2023-01-19T07:02:05;38.63;;;19.03;;
51866;SDS011;52862;52.504;13.480;2023-01-19T07:04:51;43.77;;;17.90;;
51866;SDS011;52862;52.504;13.480;2023-01-19T07:07:19;45.97;;;18.43;;
51866;SDS011;52862;52.504;13.480;2023-01-19T07:09:45;41.53;;;17.87;;
51866;SDS011;52862;52.504;13.480;2023-01-19T07:12:13;39.13;;;18.47;;
51866;SDS011;52862;52.504;13.480;2023-01-19T07:14:41;45.17;;;17.07;;
51866;SDS011;52862;52.504;13.480;2023-01-19T07:17:08;45.73;;;19.10;;
51866;SDS011;52862;52.504;13.480;2023-01-19T07:19:35;41.80;;;20.10;;
51866;SDS011;52862;52.504;13.480;2023-01-19T07:22:02;37.53;;;16.87;;
51866;SDS011;52862;52.504;13.480;2023-01-19T07:24:29;38.10;;;17.50;;
51866;SDS011;52862;52.504;13.480;2023-01-19T07:26:58;53.90;;;18.47;;
51866;SDS011;52862;52.504;13.480;2023-01-19T07:29:24;40.60;;;17.97;;
51866;SDS011;52862;52.504;13.480;2023-01-19T07:31:51;51.57;;;18.43;;
51866;SDS011;52862;52.504;13.480;2023-01-19T07:34:19;63.07;;;26.03;;
51866;SDS011;52862;52.504;13.480;2023-01-19T07:36:46;64.73;;;28.37;;
51866;SDS011;52862;52.504;13.480;2023-01-19T07:39:13;49.47;;;18.20;;
51866;SDS011;52862;52.504;13.480;2023-01-19T07:41:41;55.43;;;24.13;;
51866;SDS011;52862;52.504;13.480;2023-01-19T07:44:08;40.23;;;18.13;;
51866;SDS011;52862;52.504;13.480;2023-01-19T07:46:35;45.70;;;19.33;;
51866;SDS011;52862;52.504;13.480;2023-01-19T07:49:02;43.57;;;17.83;;
51866;SDS011;52862;52.504;13.480;2023-01-19T07:51:29;44.20;;;23.10;;
51866;SDS011;52862;52.504;13.480;2023-01-19T07:53:56;38.77;;;17.13;;
51866;SDS011;52862;52.504;13.480;2023-01-19T07:56:23;31.47;;;15.77;;
51866;SDS011;52862;52.504;13.480;2023-01-19T07:58:53;37.93;;;17.80;;
51866;SDS011;52862;52.504;13.480;2023-01-19T08:01:20;36.73;;;16.13;;
51866;SDS011;52862;52.504;13.480;2023-01-19T08:03:48;41.20;;;17.37;;
51866;SDS011;52862;52.504;13.480;2023-01-19T08:06:16;42.30;;;17.43;;
51866;SDS011;52862;52.504;13.480;2023-01-19T08:08:45;45.20;;;16.17;;
51866;SDS011;52862;52.504;13.480;2023-01-19T08:11:12;35.43;;;16.23;;
51866;SDS011;52862;52.504;13.480;2023-01-19T08:13:39;38.43;;;16.57;;
51866;SDS011;52862;52.504;13.480;2023-01-19T08:16:07;40.77;;;16.23;;
51866;SDS011;52862;52.504;13.480;2023-01-19T08:18:34;32.93;;;15.40;;
51866;SDS011;52862;52.504;13.480;2023-01-19T08:21:01;49.27;;;16.47;;
51866;SDS011;52862;52.504;13.480;2023-01-19T08:23:27;38.33;;;15.67;;
51866;SDS011;52862;52.504;13.480;2023-01-19T08:25:54;35.87;;;16.17;;
51866;SDS011;52862;52.504;13.480;2023-01-19T08:28:21;43.80;;;16.70;;
51866;SDS011;52862;52.504;13.480;2023-01-19T08:30:48;36.47;;;15.43;;
51866;SDS011;52862;52.504;13.480;2023-01-19T08:33:20;38.20;;;17.37;;
51866;SDS011;52862;52.504;13.480;2023-01-19T08:35:48;39.97;;;17.27;;
51866;SDS011;52862;52.504;13.480;2023-01-19T08:38:17;34.67;;;14.23;;
51866;SDS011;52862;52.504;13.480;2023-01-19T08:40:44;39.53;;;15.47;;
51866;SDS011;52862;52.504;13.480;2023-01-19T08:43:13;44.47;;;16.00;;
51866;SDS011;52862;52.504;13.480;2023-01-19T08:45:42;39.10;;;14.50;;
51866;SDS011;52862;52.504;13.480;2023-01-19T08:48:12;32.87;;;14.90;;
51866;SDS011;52862;52.504;13.480;2023-01-19T08:50:41;36.27;;;14.93;;
51866;SDS011;52862;52.504;13.480;2023-01-19T08:53:10;43.40;;;13.93;;
51866;SDS011;52862;52.504;13.480;2023-01-19T08:55:40;37.25;;;15.15;;
51866;SDS011;52862;52.504;13.480;2023-01-19T08:58:07;29.23;;;12.80;;
51866;SDS011;52862;52.504;13.480;2023-01-19T09:00:35;34.53;;;13.40;;
51866;SDS011;52862;52.504;13.480;2023-01-19T09:03:05;27.07;;;12.23;;
51866;SDS011;52862;52.504;13.480;2023-01-19T09:05:33;26.47;;;10.60;;
51866;SDS011;52862;52.504;13.480;2023-01-19T09:08:02;30.57;;;11.23;;
51866;SDS011;52862;52.504;13.480;2023-01-19T09:10:31;29.70;;;12.17;;
51866;SDS011;52862;52.504;13.480;2023-01-19T09:13:00;31.37;;;12.43;;
51866;SDS011;52862;52.504;13.480;2023-01-19T09:15:28;25.03;;;11.80;;
51866;SDS011;52862;52.504;13.480;2023-01-19T09:17:57;31.83;;;11.83;;
51866;SDS011;52862;52.504;13.480;2023-01-19T09:20:24;30.80;;;10.63;;
51866;SDS011;52862;52.504;13.480;2023-01-19T09:22:51;21.07;;;10.60;;
51866;SDS011;52862;52.504;13.480;2023-01-19T09:25:21;19.97;;;10.20;;
51866;SDS011;52862;52.504;13.480;2023-01-19T09:27:49;25.60;;;11.07;;
51866;SDS011;52862;52.504;13.480;2023-01-19T09:30:17;21.60;;;10.23;;
51866;SDS011;52862;52.504;13.480;2023-01-19T09:32:44;25.17;;;9.83;;
51866;SDS011;52862;52.504;13.480;2023-01-19T09:35:11;19.20;;;9.33;;
51866;SDS011;52862;52.504;13.480;2023-01-19T09:37:38;23.07;;;11.43;;
51866;SDS011;52862;52.504;13.480;2023-01-19T09:40:05;17.97;;;9.40;;
51866;SDS011;52862;52.504;13.480;2023-01-19T09:42:37;32.90;;;10.77;;
51866;SDS011;52862;52.504;13.480;2023-01-19T09:45:09;28.47;;;10.83;;
51866;SDS011;52862;52.504;13.480;2023-01-19T09:47:41;25.97;;;10.63;;
51866;SDS011;52862;52.504;13.480;2023-01-19T09:50:11;24.93;;;9.97;;
51866;SDS011;52862;52.504;13.480;2023-01-19T09:52:42;23.93;;;9.77;;
51866;SDS011;52862;52.504;13.480;2023-01-19T09:55:15;24.70;;;9.87;;
51866;SDS011;52862;52.504;13.480;2023-01-19T09:57:46;19.93;;;8.90;;
51866;SDS011;52862;52.504;13.480;2023-01-19T10:00:13;31.90;;;9.33;;
51866;SDS011;52862;52.504;13.480;2023-01-19T10:02:41;22.47;;;9.30;;
51866;SDS011;52862;52.504;13.480;2023-01-19T10:05:19;20.00;;;7.67;;
51866;SDS011;52862;52.504;13.480;2023-01-19T10:07:54;27.00;;;10.27;;
51866;SDS011;52862;52.504;13.480;2023-01-19T10:10:33;23.83;;;9.40;;
51866;SDS011;52862;52.504;13.480;2023-01-19T10:13:11;28.00;;;10.83;;
51866;SDS011;52862;52.504;13.480;2023-01-19T10:15:48;17.00;;;8.70;;
51866;SDS011;52862;52.504;13.480;2023-01-19T10:18:22;23.57;;;8.57;;
51866;SDS011;52862;52.504;13.480;2023-01-19T10:20:52;20.40;;;9.27;;
51866;SDS011;52862;52.504;13.480;2023-01-19T10:23:32;16.40;;;9.00;;
51866;SDS011;52862;52.504;13.480;2023-01-19T10:26:04;17.57;;;9.83;;
51866;SDS011;52862;52.504;13.480;2023-01-19T10:28:35;20.83;;;9.40;;
51866;SDS011;52862;52.504;13.480;2023-01-19T10:31:04;18.03;;;8.37;;
51866;SDS011;52862;52.504;13.480;2023-01-19T10:33:34;20.43;;;8.87;;
51866;SDS011;52862;52.504;13.480;2023-01-19T10:36:05;26.60;;;10.17;;
51866;SDS011;52862;52.504;13.480;2023-01-19T10:38:41;16.10;;;9.30;;
51866;SDS011;52862;52.504;13.480;2023-01-19T10:41:10;21.50;;;9.43;;
51866;SDS011;52862;52.504;13.480;2023-01-19T10:43:41;22.73;;;8.57;;
51866;SDS011;52862;52.504;13.480;2023-01-19T10:46:17;16.10;;;8.37;;
51866;SDS011;52862;52.504;13.480;2023-01-19T10:48:52;20.00;;;9.17;;
51866;SDS011;52862;52.504;13.480;2023-01-19T10:51:20;24.80;;;9.63;;
51866;SDS011;52862;52.504;13.480;2023-01-19T10:53:58;23.77;;;9.80;;
51866;SDS011;52862;52.504;13.480;2023-01-19T10:56:28;21.50;;;9.23;;
51866;SDS011;52862;52.504;13.480;2023-01-19T10:58:59;19.63;;;7.80;;
51866;SDS011;52862;52.504;13.480;2023-01-19T11:01:26;21.90;;;9.93;;
51866;SDS011;52862;52.504;13.480;2023-01-19T11:03:55;20.30;;;9.87;;
51866;SDS011;52862;52.504;13.480;2023-01-19T11:06:30;25.27;;;9.90;;
51866;SDS011;52862;52.504;13.480;2023-01-19T11:09:08;30.30;;;11.83;;
51866;SDS011;52862;52.504;13.480;2023-01-19T11:11:41;27.20;;;10.33;;
51866;SDS011;52862;52.504;13.480;2023-01-19T11:14:11;24.90;;;10.33;;
51866;SDS011;52862;52.504;13.480;2023-01-19T11:16:39;23.83;;;10.07;;
51866;SDS011;52862;52.504;13.480;2023-01-19T11:19:18;26.00;;;9.87;;
51866;SDS011;52862;52.504;13.480;2023-01-19T11:21:54;19.37;;;10.20;;
51866;SDS011;52862;52.504;13.480;2023-01-19T11:24:35;33.77;;;11.73;;
51866;SDS011;52862;52.504;13.480;2023-01-19T11:27:04;43.10;;;15.87;;
51866;SDS011;52862;52.504;13.480;2023-01-19T11:29:31;26.90;;;12.57;;
51866;SDS011;52862;52.504;13.480;2023-01-19T11:32:08;43.87;;;12.37;;
51866;SDS011;52862;52.504;13.480;2023-01-19T11:34:36;22.70;;;10.37;;
51866;SDS011;52862;52.504;13.480;2023-01-19T11:37:04;19.90;;;10.20;;
51866;SDS011;52862;52.504;13.480;2023-01-19T11:39:51;24.00;;;10.60;;
51866;SDS011;52862;52.504;13.480;2023-01-19T11:42:20;24.90;;;10.23;;
51866;SDS011;52862;52.504;13.480;2023-01-19T11:44:50;28.53;;;11.53;;
51866;SDS011;52862;52.504;13.480;2023-01-19T11:47:24;23.73;;;11.73;;
51866;SDS011;52862;52.504;13.480;2023-01-19T11:49:57;21.33;;;9.60;;
51866;SDS011;52862;52.504;13.480;2023-01-19T11:52:26;23.13;;;10.00;;
51866;SDS011;52862;52.504;13.480;2023-01-19T11:55:02;26.33;;;10.93;;
51866;SDS011;52862;52.504;13.480;2023-01-19T11:57:41;28.43;;;10.60;;
51866;SDS011;52862;52.504;13.480;2023-01-19T12:00:16;27.77;;;12.30;;
51866;SDS011;52862;52.504;13.480;2023-01-19T12:02:54;26.70;;;10.57;;
51866;SDS011;52862;52.504;13.480;2023-01-19T12:05:28;24.63;;;11.10;;
51866;SDS011;52862;52.504;13.480;2023-01-19T12:07:57;21.07;;;10.77;;
51866;SDS011;52862;52.504;13.480;2023-01-19T12:10:32;21.80;;;10.17;;
51866;SDS011;52862;52.504;13.480;2023-01-19T12:13:04;23.13;;;11.73;;
51866;SDS011;52862;52.504;13.480;2023-01-19T12:15:31;25.87;;;11.30;;
51866;SDS011;52862;52.504;13.480;2023-01-19T12:18:02;24.73;;;9.97;;
51866;SDS011;52862;52.504;13.480;2023-01-19T12:20:32;21.83;;;10.17;;
51866;SDS011;52862;52.504;13.480;2023-01-19T12:23:06;26.83;;;11.27;;
51866;SDS011;52862;52.504;13.480;2023-01-19T12:25:49;24.63;;;10.67;;
51866;SDS011;52862;52.504;13.480;2023-01-19T12:28:26;23.23;;;10.90;;
51866;SDS011;52862;52.504;13.480;2023-01-19T12:30:55;26.50;;;12.30;;
51866;SDS011;52862;52.504;13.480;2023-01-19T12:33:33;27.00;;;11.47;;
51866;SDS011;52862;52.504;13.480;2023-01-19T12:36:03;19.10;;;10.60;;
51866;SDS011;52862;52.504;13.480;2023-01-19T12:38:36;25.03;;;11.30;;
51866;SDS011;52862;52.504;13.480;2023-01-19T12:41:22;24.93;;;10.93;;
51866;SDS011;52862;52.504;13.480;2023-01-19T12:46:50;20.43;;;11.40;;
51866;SDS011;52862;52.504;13.480;2023-01-19T12:49:26;24.93;;;11.53;;
51866;SDS011;52862;52.504;13.480;2023-01-19T12:52:09;28.83;;;11.43;;
51866;SDS011;52862;52.504;13.480;2023-01-19T12:54:41;27.47;;;11.83;;
51866;SDS011;52862;52.504;13.480;2023-01-19T12:57:16;30.97;;;12.60;;
51866;SDS011;52862;52.504;13.480;2023-01-19T12:59:48;25.03;;;12.33;;
51866;SDS011;52862;52.504;13.480;2023-01-19T13:08:22;28.80;;;13.43;;
51866;SDS011;52862;52.504;13.480;2023-01-19T13:20:04;23.00;;;10.83;;
51866;SDS011;52862;52.504;13.480;2023-01-19T13:25:46;22.90;;;11.23;;
51866;SDS011;52862;52.504;13.480;2023-01-19T13:28:17;19.73;;;11.07;;
51866;SDS011;52862;52.504;13.480;2023-01-19T13:30:51;23.20;;;11.17;;
51866;SDS011;52862;52.504;13.480;2023-01-19T13:33:22;22.83;;;10.57;;
51866;SDS011;52862;52.504;13.480;2023-01-19T13:35:52;21.23;;;10.57;;
51866;SDS011;52862;52.504;13.480;2023-01-19T13:38:22;22.23;;;11.33;;
51866;SDS011;52862;52.504;13.480;2023-01-19T13:40:49;23.93;;;11.77;;
51866;SDS011;52862;52.504;13.480;2023-01-19T13:43:17;27.10;;;10.37;;
51866;SDS011;52862;52.504;13.480;2023-01-19T13:45:46;24.70;;;11.10;;
51866;SDS011;52862;52.504;13.480;2023-01-19T13:48:19;19.97;;;11.43;;
51866;SDS011;52862;52.504;13.480;2023-01-19T13:51:00;24.53;;;11.57;;
51866;SDS011;52862;52.504;13.480;2023-01-19T13:53:28;28.43;;;12.27;;
51866;SDS011;52862;52.504;13.480;2023-01-19T13:58:57;21.80;;;11.53;;
51866;SDS011;52862;52.504;13.480;2023-01-19T14:01:25;32.50;;;12.63;;
51866;SDS011;52862;52.504;13.480;2023-01-19T14:03:55;27.23;;;12.90;;
51866;SDS011;52862;52.504;13.480;2023-01-19T14:06:27;30.87;;;12.53;;
51866;SDS011;52862;52.504;13.480;2023-01-19T14:09:15;29.77;;;13.63;;
51866;SDS011;52862;52.504;13.480;2023-01-19T14:11:43;33.13;;;13.43;;
51866;SDS011;52862;52.504;13.480;2023-01-19T14:14:21;30.50;;;12.93;;
51866;SDS011;52862;52.504;13.480;2023-01-19T14:16:49;31.03;;;14.27;;
51866;SDS011;52862;52.504;13.480;2023-01-19T14:19:16;27.47;;;13.70;;
51866;SDS011;52862;52.504;13.480;2023-01-19T14:21:43;27.60;;;13.93;;
51866;SDS011;52862;52.504;13.480;2023-01-19T14:24:14;33.93;;;11.73;;
51866;SDS011;52862;52.504;13.480;2023-01-19T14:26:47;30.20;;;12.00;;
51866;SDS011;52862;52.504;13.480;2023-01-19T14:29:22;23.67;;;12.60;;
51866;SDS011;52862;52.504;13.480;2023-01-19T14:31:51;28.90;;;12.63;;
51866;SDS011;52862;52.504;13.480;2023-01-19T14:34:31;30.87;;;12.33;;
51866;SDS011;52862;52.504;13.480;2023-01-19T14:37:00;33.07;;;13.97;;
51866;SDS011;52862;52.504;13.480;2023-01-19T14:39:29;28.90;;;13.27;;
51866;SDS011;52862;52.504;13.480;2023-01-19T14:41:58;34.90;;;13.67;;
51866;SDS011;52862;52.504;13.480;2023-01-19T14:44:29;33.07;;;12.60;;
51866;SDS011;52862;52.504;13.480;2023-01-19T14:47:00;42.07;;;17.07;;
51866;SDS011;52862;52.504;13.480;2023-01-19T14:49:31;33.97;;;13.97;;
51866;SDS011;52862;52.504;13.480;2023-01-19T14:52:01;25.93;;;12.63;;